Skip Navigation Links
NOAA logo - Click to go to the NOAA homepage
NOAA's National Weather Service
Alaska Aviation Weather Unit
  NWS logo - Click to go to the NWS homepage
Left Navbar Graphic     01 AKDT = 09 GMT

   
NOAA is celebrating 200 years of science, service, and stewardship. Visit the NOAA 200th celebration Web site to learn more.
USA.gov is the U.S. Government's official Web portal to all Federal, state and local government Web resources and services.
Facebook
NWS on Facebook

Important Change Regarding the AAWU Web Presence

 

Over the last several months, the AAWU has been working to navigate its webpages to a nationally supported server. Security, as well as other needs, have necessitated the change.  We have been given an extension for the site changeover while we diligently work at addressing feedback received. As of July 14, 2017, aawu.arh.noaa.gov will be discontinued. The new AAWU web address is weather.gov/aawu. It is now live and will run in-parallel with the old site until it is discontinued on July 14, 2017. Please continue to send any feedback or questions regarding the new webpages to nws.ar.aawu.webauthors@noaa.gov.  Thank you for your patience during this time of transition.
AAWU Home :: Display TAF Add Bookmark
TAF PASN 190901Z 1909/2006  09011KT P6SM VCSH OVC010
     FM191100 07007KT 2SM BR OVC002
     FM192300 03012KT P6SM OVC007=

3581
FTAK31 PANC 190901 AAA
TAFADU
TAF AMD
PASN 190321Z AUTO 09013KT 1 3/4SM BR OVC005 10/10 A2978=

PASN 190332Z AUTO 09013KT 1SM BR OVC002 10/10 A2978=

METAR PASN 190353Z AUTO 09011KT 3SM BR OVC002 10/10 A2979 RMK AO2 SLP087
     T01000100 TSNO=

PASN 190435Z AUTO 10010KT 10SM OVC006 10/10 A2978=

METAR PASN 190453Z AUTO 09010KT 10SM OVC006 11/10 A2978 RMK AO2 SLP086
     T01060100 TSNO=

PASN 190521Z AUTO 09010KT 1 3/4SM BR BKN005 OVC010 10/10 A2978=

PASN 190535Z AUTO 09013KT 3SM BR FEW003 OVC008 10/10 A2978=

METAR PASN 190553Z AUTO 09011KT 7SM OVC009 10/09 A2978 RMK AO2
 SLP084 60000 T01000094 10106 20100 58001 TSNO=

METAR PASN 190653Z AUTO 08010KT 10SM OVC009 10/09 A2979 RMK AO2 SLP087
     T01000094 TSNO=

PASN 190713Z AUTO 08011KT 10SM OVC010 10/09 A2979=

METAR PASN 190753Z AUTO 08009KT 10SM OVC010 10/09 A2979 RMK AO2 SLP089
     T01000094 TSNO=

METAR PASN 190853Z AUTO 08008KT 10SM OVC010 10/09 A2980 RMK AO2 SLP091
     T01000094 401110094 51007 TSNO=


NOAA's National Weather Service
Alaska Aviation Weather Unit
6930 Sand Lake Road
Anchorage, AK 99502-1845
Disclaimer
Credits
Glossary
Privacy Policy
About Us
Career Opportunities
Contact AAWU Internet Services Site last modified: April, 17th 2012